sensor_id;sensor_type;location;lat;lon;timestamp;P1;durP1;ratioP1;P2;durP2;ratioP2
4051;SDS011;2040;50.924;11.604;2022-10-28T00:00:32;13.00;;;2.50;;
4051;SDS011;2040;50.924;11.604;2022-10-28T00:02:59;5.70;;;2.40;;
4051;SDS011;2040;50.924;11.604;2022-10-28T00:05:26;7.13;;;2.80;;
4051;SDS011;2040;50.924;11.604;2022-10-28T00:07:52;8.97;;;3.00;;
4051;SDS011;2040;50.924;11.604;2022-10-28T00:10:17;5.00;;;3.10;;
4051;SDS011;2040;50.924;11.604;2022-10-28T00:12:43;10.03;;;3.37;;
4051;SDS011;2040;50.924;11.604;2022-10-28T00:15:08;7.63;;;2.80;;
4051;SDS011;2040;50.924;11.604;2022-10-28T00:17:34;5.23;;;2.73;;
4051;SDS011;2040;50.924;11.604;2022-10-28T00:20:00;11.53;;;3.20;;
4051;SDS011;2040;50.924;11.604;2022-10-28T00:22:26;8.93;;;3.13;;
4051;SDS011;2040;50.924;11.604;2022-10-28T00:24:51;5.00;;;2.50;;
4051;SDS011;2040;50.924;11.604;2022-10-28T00:27:17;7.93;;;2.50;;
4051;SDS011;2040;50.924;11.604;2022-10-28T00:29:43;4.23;;;3.17;;
4051;SDS011;2040;50.924;11.604;2022-10-28T00:32:08;11.10;;;3.13;;
4051;SDS011;2040;50.924;11.604;2022-10-28T00:34:34;7.00;;;3.43;;
4051;SDS011;2040;50.924;11.604;2022-10-28T00:36:59;7.93;;;2.53;;
4051;SDS011;2040;50.924;11.604;2022-10-28T00:39:25;6.27;;;2.70;;
4051;SDS011;2040;50.924;11.604;2022-10-28T00:41:55;4.80;;;2.47;;
4051;SDS011;2040;50.924;11.604;2022-10-28T00:50:02;6.60;;;3.03;;
4051;SDS011;2040;50.924;11.604;2022-10-28T00:52:30;7.30;;;3.03;;
4051;SDS011;2040;50.924;11.604;2022-10-28T00:54:56;5.07;;;3.27;;
4051;SDS011;2040;50.924;11.604;2022-10-28T00:57:27;5.13;;;3.30;;
4051;SDS011;2040;50.924;11.604;2022-10-28T00:59:55;4.20;;;2.90;;
4051;SDS011;2040;50.924;11.604;2022-10-28T01:02:22;4.97;;;2.50;;
4051;SDS011;2040;50.924;11.604;2022-10-28T01:04:48;10.33;;;3.50;;
4051;SDS011;2040;50.924;11.604;2022-10-28T01:07:14;9.33;;;2.90;;
4051;SDS011;2040;50.924;11.604;2022-10-28T01:09:41;6.80;;;2.73;;
4051;SDS011;2040;50.924;11.604;2022-10-28T01:15:11;7.10;;;2.80;;
4051;SDS011;2040;50.924;11.604;2022-10-28T01:23:34;4.00;;;2.70;;
4051;SDS011;2040;50.924;11.604;2022-10-28T01:29:21;5.90;;;2.87;;
4051;SDS011;2040;50.924;11.604;2022-10-28T01:32:20;5.10;;;3.03;;
4051;SDS011;2040;50.924;11.604;2022-10-28T01:35:03;5.53;;;2.83;;
4051;SDS011;2040;50.924;11.604;2022-10-28T01:40:43;6.30;;;2.80;;
4051;SDS011;2040;50.924;11.604;2022-10-28T01:43:23;5.30;;;2.77;;
4051;SDS011;2040;50.924;11.604;2022-10-28T01:48:31;9.07;;;2.93;;
4051;SDS011;2040;50.924;11.604;2022-10-28T01:53:34;6.10;;;2.83;;
4051;SDS011;2040;50.924;11.604;2022-10-28T01:56:05;6.87;;;2.80;;
4051;SDS011;2040;50.924;11.604;2022-10-28T01:58:34;7.23;;;2.37;;
4051;SDS011;2040;50.924;11.604;2022-10-28T02:01:03;5.70;;;2.33;;
4051;SDS011;2040;50.924;11.604;2022-10-28T02:03:30;4.43;;;2.70;;
4051;SDS011;2040;50.924;11.604;2022-10-28T02:05:56;5.87;;;2.80;;
4051;SDS011;2040;50.924;11.604;2022-10-28T02:13:32;6.57;;;3.13;;
4051;SDS011;2040;50.924;11.604;2022-10-28T02:16:11;5.97;;;3.20;;
4051;SDS011;2040;50.924;11.604;2022-10-28T02:18:52;10.00;;;2.67;;
4051;SDS011;2040;50.924;11.604;2022-10-28T02:21:34;4.60;;;2.60;;
4051;SDS011;2040;50.924;11.604;2022-10-28T02:24:13;3.63;;;2.70;;
4051;SDS011;2040;50.924;11.604;2022-10-28T02:26:46;5.43;;;2.83;;
4051;SDS011;2040;50.924;11.604;2022-10-28T02:29:26;6.70;;;2.20;;
4051;SDS011;2040;50.924;11.604;2022-10-28T02:31:58;7.00;;;2.70;;
4051;SDS011;2040;50.924;11.604;2022-10-28T02:34:30;9.50;;;3.10;;
4051;SDS011;2040;50.924;11.604;2022-10-28T02:36:58;6.40;;;2.87;;
4051;SDS011;2040;50.924;11.604;2022-10-28T02:39:30;4.93;;;3.40;;
4051;SDS011;2040;50.924;11.604;2022-10-28T02:42:11;9.83;;;3.20;;
4051;SDS011;2040;50.924;11.604;2022-10-28T02:45:06;6.67;;;2.60;;
4051;SDS011;2040;50.924;11.604;2022-10-28T02:47:40;6.90;;;3.33;;
4051;SDS011;2040;50.924;11.604;2022-10-28T02:50:19;7.80;;;2.70;;
4051;SDS011;2040;50.924;11.604;2022-10-28T02:52:49;3.73;;;2.03;;
4051;SDS011;2040;50.924;11.604;2022-10-28T02:55:18;4.70;;;3.00;;
4051;SDS011;2040;50.924;11.604;2022-10-28T02:57:47;3.40;;;2.20;;
4051;SDS011;2040;50.924;11.604;2022-10-28T03:00:14;4.43;;;2.40;;
4051;SDS011;2040;50.924;11.604;2022-10-28T03:02:42;4.87;;;2.50;;
4051;SDS011;2040;50.924;11.604;2022-10-28T03:05:07;4.47;;;2.97;;
4051;SDS011;2040;50.924;11.604;2022-10-28T03:07:33;3.93;;;3.20;;
4051;SDS011;2040;50.924;11.604;2022-10-28T03:09:59;21.83;;;3.43;;
4051;SDS011;2040;50.924;11.604;2022-10-28T03:12:24;11.73;;;3.30;;
4051;SDS011;2040;50.924;11.604;2022-10-28T03:14:50;9.20;;;3.03;;
4051;SDS011;2040;50.924;11.604;2022-10-28T03:17:16;7.10;;;3.10;;
4051;SDS011;2040;50.924;11.604;2022-10-28T03:19:41;10.17;;;3.10;;
4051;SDS011;2040;50.924;11.604;2022-10-28T03:22:07;6.77;;;2.53;;
4051;SDS011;2040;50.924;11.604;2022-10-28T03:24:32;11.13;;;3.03;;
4051;SDS011;2040;50.924;11.604;2022-10-28T03:26:58;3.37;;;2.63;;
4051;SDS011;2040;50.924;11.604;2022-10-28T03:29:23;6.53;;;3.20;;
4051;SDS011;2040;50.924;11.604;2022-10-28T03:31:49;6.97;;;3.70;;
4051;SDS011;2040;50.924;11.604;2022-10-28T03:34:15;6.63;;;3.80;;
4051;SDS011;2040;50.924;11.604;2022-10-28T03:36:40;11.10;;;3.20;;
4051;SDS011;2040;50.924;11.604;2022-10-28T03:39:06;6.70;;;2.87;;
4051;SDS011;2040;50.924;11.604;2022-10-28T03:41:31;5.57;;;3.23;;
4051;SDS011;2040;50.924;11.604;2022-10-28T03:43:57;12.23;;;4.00;;
4051;SDS011;2040;50.924;11.604;2022-10-28T03:46:22;6.60;;;3.00;;
4051;SDS011;2040;50.924;11.604;2022-10-28T03:48:48;4.77;;;2.90;;
4051;SDS011;2040;50.924;11.604;2022-10-28T03:51:14;8.27;;;2.77;;
4051;SDS011;2040;50.924;11.604;2022-10-28T03:53:39;9.70;;;3.43;;
4051;SDS011;2040;50.924;11.604;2022-10-28T03:56:05;6.37;;;3.70;;
4051;SDS011;2040;50.924;11.604;2022-10-28T03:58:31;8.30;;;3.70;;
4051;SDS011;2040;50.924;11.604;2022-10-28T04:00:56;4.73;;;3.13;;
4051;SDS011;2040;50.924;11.604;2022-10-28T04:03:22;5.00;;;3.10;;
4051;SDS011;2040;50.924;11.604;2022-10-28T04:05:49;7.53;;;3.10;;
4051;SDS011;2040;50.924;11.604;2022-10-28T04:08:15;11.10;;;3.40;;
4051;SDS011;2040;50.924;11.604;2022-10-28T04:10:41;8.47;;;4.27;;
4051;SDS011;2040;50.924;11.604;2022-10-28T04:13:08;4.77;;;2.63;;
4051;SDS011;2040;50.924;11.604;2022-10-28T04:15:34;4.87;;;3.43;;
4051;SDS011;2040;50.924;11.604;2022-10-28T04:18:00;5.97;;;3.33;;
4051;SDS011;2040;50.924;11.604;2022-10-28T04:20:26;17.23;;;4.30;;
4051;SDS011;2040;50.924;11.604;2022-10-28T04:22:52;6.50;;;2.73;;
4051;SDS011;2040;50.924;11.604;2022-10-28T04:25:19;13.93;;;4.07;;
4051;SDS011;2040;50.924;11.604;2022-10-28T04:27:48;4.63;;;3.30;;
4051;SDS011;2040;50.924;11.604;2022-10-28T04:30:14;11.50;;;3.53;;
4051;SDS011;2040;50.924;11.604;2022-10-28T04:32:40;18.13;;;3.43;;
4051;SDS011;2040;50.924;11.604;2022-10-28T04:35:07;8.23;;;2.97;;
4051;SDS011;2040;50.924;11.604;2022-10-28T04:37:33;7.63;;;4.60;;
4051;SDS011;2040;50.924;11.604;2022-10-28T04:39:59;4.13;;;2.60;;
4051;SDS011;2040;50.924;11.604;2022-10-28T04:42:25;13.33;;;4.00;;
4051;SDS011;2040;50.924;11.604;2022-10-28T04:44:50;9.53;;;3.73;;
4051;SDS011;2040;50.924;11.604;2022-10-28T04:47:16;8.23;;;3.50;;
4051;SDS011;2040;50.924;11.604;2022-10-28T04:49:42;8.80;;;2.90;;
4051;SDS011;2040;50.924;11.604;2022-10-28T04:52:08;4.80;;;3.00;;
4051;SDS011;2040;50.924;11.604;2022-10-28T04:54:34;11.27;;;3.27;;
4051;SDS011;2040;50.924;11.604;2022-10-28T04:56:59;6.20;;;3.20;;
4051;SDS011;2040;50.924;11.604;2022-10-28T04:59:25;4.97;;;3.40;;
4051;SDS011;2040;50.924;11.604;2022-10-28T05:01:51;8.23;;;3.30;;
4051;SDS011;2040;50.924;11.604;2022-10-28T05:04:16;5.57;;;2.87;;
4051;SDS011;2040;50.924;11.604;2022-10-28T05:06:42;6.10;;;3.50;;
4051;SDS011;2040;50.924;11.604;2022-10-28T05:09:07;5.67;;;3.13;;
4051;SDS011;2040;50.924;11.604;2022-10-28T05:11:33;7.00;;;3.00;;
4051;SDS011;2040;50.924;11.604;2022-10-28T05:13:59;10.80;;;3.50;;
4051;SDS011;2040;50.924;11.604;2022-10-28T05:16:24;10.53;;;3.10;;
4051;SDS011;2040;50.924;11.604;2022-10-28T05:18:50;6.10;;;2.90;;
4051;SDS011;2040;50.924;11.604;2022-10-28T05:21:15;5.53;;;3.10;;
4051;SDS011;2040;50.924;11.604;2022-10-28T05:23:41;11.10;;;3.17;;
4051;SDS011;2040;50.924;11.604;2022-10-28T05:26:07;7.33;;;2.80;;
4051;SDS011;2040;50.924;11.604;2022-10-28T05:28:32;5.10;;;2.90;;
4051;SDS011;2040;50.924;11.604;2022-10-28T05:30:58;5.63;;;3.20;;
4051;SDS011;2040;50.924;11.604;2022-10-28T05:33:24;6.90;;;3.27;;
4051;SDS011;2040;50.924;11.604;2022-10-28T05:35:49;4.77;;;3.23;;
4051;SDS011;2040;50.924;11.604;2022-10-28T05:38:15;6.10;;;4.23;;
4051;SDS011;2040;50.924;11.604;2022-10-28T05:40:41;8.20;;;3.60;;
4051;SDS011;2040;50.924;11.604;2022-10-28T05:43:07;6.87;;;3.10;;
4051;SDS011;2040;50.924;11.604;2022-10-28T05:45:34;15.73;;;4.03;;
4051;SDS011;2040;50.924;11.604;2022-10-28T05:48:00;5.07;;;3.20;;
4051;SDS011;2040;50.924;11.604;2022-10-28T05:50:26;5.30;;;3.27;;
4051;SDS011;2040;50.924;11.604;2022-10-28T05:52:52;5.83;;;3.17;;
4051;SDS011;2040;50.924;11.604;2022-10-28T05:55:20;12.90;;;4.83;;
4051;SDS011;2040;50.924;11.604;2022-10-28T05:57:47;8.47;;;4.40;;
4051;SDS011;2040;50.924;11.604;2022-10-28T06:00:15;14.10;;;3.90;;
4051;SDS011;2040;50.924;11.604;2022-10-28T06:02:42;4.83;;;3.30;;
4051;SDS011;2040;50.924;11.604;2022-10-28T06:05:08;6.53;;;4.40;;
4051;SDS011;2040;50.924;11.604;2022-10-28T06:07:34;9.33;;;3.10;;
4051;SDS011;2040;50.924;11.604;2022-10-28T06:10:01;5.83;;;3.27;;
4051;SDS011;2040;50.924;11.604;2022-10-28T06:12:27;9.37;;;3.30;;
4051;SDS011;2040;50.924;11.604;2022-10-28T06:14:53;7.63;;;3.07;;
4051;SDS011;2040;50.924;11.604;2022-10-28T06:17:18;7.40;;;3.10;;
4051;SDS011;2040;50.924;11.604;2022-10-28T06:19:44;9.13;;;3.47;;
4051;SDS011;2040;50.924;11.604;2022-10-28T06:22:10;10.63;;;3.97;;
4051;SDS011;2040;50.924;11.604;2022-10-28T06:24:36;4.13;;;2.93;;
4051;SDS011;2040;50.924;11.604;2022-10-28T06:27:01;10.20;;;4.03;;
4051;SDS011;2040;50.924;11.604;2022-10-28T06:29:27;8.70;;;3.47;;
4051;SDS011;2040;50.924;11.604;2022-10-28T06:31:53;6.10;;;3.10;;
4051;SDS011;2040;50.924;11.604;2022-10-28T06:34:18;9.03;;;3.73;;
4051;SDS011;2040;50.924;11.604;2022-10-28T06:36:44;7.33;;;3.27;;
4051;SDS011;2040;50.924;11.604;2022-10-28T06:39:10;13.23;;;3.17;;
4051;SDS011;2040;50.924;11.604;2022-10-28T06:41:35;8.70;;;3.60;;
4051;SDS011;2040;50.924;11.604;2022-10-28T06:44:01;7.90;;;3.13;;
4051;SDS011;2040;50.924;11.604;2022-10-28T06:46:27;9.40;;;3.53;;
4051;SDS011;2040;50.924;11.604;2022-10-28T06:48:55;7.07;;;3.20;;
4051;SDS011;2040;50.924;11.604;2022-10-28T06:51:21;7.30;;;3.40;;
4051;SDS011;2040;50.924;11.604;2022-10-28T06:53:48;10.70;;;3.10;;
4051;SDS011;2040;50.924;11.604;2022-10-28T06:56:17;7.23;;;3.00;;
4051;SDS011;2040;50.924;11.604;2022-10-28T06:58:42;7.03;;;2.57;;
4051;SDS011;2040;50.924;11.604;2022-10-28T07:01:08;7.47;;;2.97;;
4051;SDS011;2040;50.924;11.604;2022-10-28T07:03:34;5.20;;;2.30;;
4051;SDS011;2040;50.924;11.604;2022-10-28T07:06:00;8.57;;;3.30;;
4051;SDS011;2040;50.924;11.604;2022-10-28T07:08:26;6.57;;;2.80;;
4051;SDS011;2040;50.924;11.604;2022-10-28T07:10:53;7.37;;;3.00;;
4051;SDS011;2040;50.924;11.604;2022-10-28T07:13:20;7.17;;;3.43;;
4051;SDS011;2040;50.924;11.604;2022-10-28T07:15:49;5.83;;;2.43;;
4051;SDS011;2040;50.924;11.604;2022-10-28T07:18:16;7.60;;;2.87;;
4051;SDS011;2040;50.924;11.604;2022-10-28T07:20:42;5.47;;;2.97;;
4051;SDS011;2040;50.924;11.604;2022-10-28T07:23:07;7.93;;;2.67;;
4051;SDS011;2040;50.924;11.604;2022-10-28T07:25:33;22.90;;;3.23;;
4051;SDS011;2040;50.924;11.604;2022-10-28T07:27:59;5.10;;;3.33;;
4051;SDS011;2040;50.924;11.604;2022-10-28T07:30:25;8.13;;;3.27;;
4051;SDS011;2040;50.924;11.604;2022-10-28T07:32:51;8.47;;;3.00;;
4051;SDS011;2040;50.924;11.604;2022-10-28T07:35:17;9.57;;;3.20;;
4051;SDS011;2040;50.924;11.604;2022-10-28T07:37:43;6.37;;;2.50;;
4051;SDS011;2040;50.924;11.604;2022-10-28T07:40:09;3.93;;;2.80;;
4051;SDS011;2040;50.924;11.604;2022-10-28T07:42:35;7.13;;;3.77;;
4051;SDS011;2040;50.924;11.604;2022-10-28T07:45:01;7.20;;;2.70;;
4051;SDS011;2040;50.924;11.604;2022-10-28T07:47:27;9.20;;;3.47;;
4051;SDS011;2040;50.924;11.604;2022-10-28T07:49:53;8.23;;;3.03;;
4051;SDS011;2040;50.924;11.604;2022-10-28T07:52:19;5.03;;;3.00;;
4051;SDS011;2040;50.924;11.604;2022-10-28T07:54:45;4.70;;;2.37;;
4051;SDS011;2040;50.924;11.604;2022-10-28T07:57:11;5.60;;;2.30;;
4051;SDS011;2040;50.924;11.604;2022-10-28T07:59:36;7.50;;;3.43;;
4051;SDS011;2040;50.924;11.604;2022-10-28T08:02:02;9.27;;;3.37;;
4051;SDS011;2040;50.924;11.604;2022-10-28T08:04:29;7.50;;;2.77;;
4051;SDS011;2040;50.924;11.604;2022-10-28T08:06:55;6.73;;;2.90;;
4051;SDS011;2040;50.924;11.604;2022-10-28T08:09:20;6.00;;;2.80;;
4051;SDS011;2040;50.924;11.604;2022-10-28T08:11:46;6.03;;;3.60;;
4051;SDS011;2040;50.924;11.604;2022-10-28T08:14:12;7.93;;;2.33;;
4051;SDS011;2040;50.924;11.604;2022-10-28T08:16:38;8.00;;;2.53;;
4051;SDS011;2040;50.924;11.604;2022-10-28T08:19:03;7.00;;;3.03;;
4051;SDS011;2040;50.924;11.604;2022-10-28T08:21:29;6.70;;;2.17;;
4051;SDS011;2040;50.924;11.604;2022-10-28T08:23:55;3.83;;;2.27;;
4051;SDS011;2040;50.924;11.604;2022-10-28T08:26:21;6.57;;;2.43;;
4051;SDS011;2040;50.924;11.604;2022-10-28T08:28:46;9.80;;;2.30;;
4051;SDS011;2040;50.924;11.604;2022-10-28T08:31:12;4.03;;;2.53;;
4051;SDS011;2040;50.924;11.604;2022-10-28T08:33:39;5.80;;;2.30;;
4051;SDS011;2040;50.924;11.604;2022-10-28T08:36:07;7.80;;;3.13;;
4051;SDS011;2040;50.924;11.604;2022-10-28T08:38:35;8.70;;;2.13;;
4051;SDS011;2040;50.924;11.604;2022-10-28T08:46:09;7.30;;;2.60;;
4051;SDS011;2040;50.924;11.604;2022-10-28T08:49:00;4.33;;;2.03;;
4051;SDS011;2040;50.924;11.604;2022-10-28T08:51:49;7.43;;;2.57;;
4051;SDS011;2040;50.924;11.604;2022-10-28T08:54:56;6.43;;;2.23;;
4051;SDS011;2040;50.924;11.604;2022-10-28T08:57:15;3.10;;;2.30;;
4051;SDS011;2040;50.924;11.604;2022-10-28T08:59:45;4.60;;;2.40;;
4051;SDS011;2040;50.924;11.604;2022-10-28T09:02:22;6.10;;;2.80;;
4051;SDS011;2040;50.924;11.604;2022-10-28T09:05:31;14.23;;;2.30;;
4051;SDS011;2040;50.924;11.604;2022-10-28T09:07:47;5.70;;;2.50;;
4051;SDS011;2040;50.924;11.604;2022-10-28T09:10:14;8.50;;;2.30;;
4051;SDS011;2040;50.924;11.604;2022-10-28T09:20:46;11.63;;;2.27;;
4051;SDS011;2040;50.924;11.604;2022-10-28T09:23:35;4.90;;;2.43;;
4051;SDS011;2040;50.924;11.604;2022-10-28T09:28:42;11.57;;;2.13;;
4051;SDS011;2040;50.924;11.604;2022-10-28T09:31:32;3.70;;;1.90;;
4051;SDS011;2040;50.924;11.604;2022-10-28T09:37:03;10.50;;;5.57;;
4051;SDS011;2040;50.924;11.604;2022-10-28T09:39:44;37.33;;;16.30;;
4051;SDS011;2040;50.924;11.604;2022-10-28T09:42:15;18.60;;;8.30;;
4051;SDS011;2040;50.924;11.604;2022-10-28T09:44:56;22.07;;;9.13;;
4051;SDS011;2040;50.924;11.604;2022-10-28T09:47:34;12.07;;;4.17;;
4051;SDS011;2040;50.924;11.604;2022-10-28T09:50:05;23.60;;;10.87;;
4051;SDS011;2040;50.924;11.604;2022-10-28T09:55:37;33.27;;;17.50;;
4051;SDS011;2040;50.924;11.604;2022-10-28T09:58:03;14.13;;;8.40;;
4051;SDS011;2040;50.924;11.604;2022-10-28T10:00:29;16.07;;;7.90;;
4051;SDS011;2040;50.924;11.604;2022-10-28T10:02:56;19.83;;;10.37;;
4051;SDS011;2040;50.924;11.604;2022-10-28T10:05:22;27.10;;;15.20;;
4051;SDS011;2040;50.924;11.604;2022-10-28T10:07:54;17.30;;;9.70;;
4051;SDS011;2040;50.924;11.604;2022-10-28T10:12:51;8.07;;;3.13;;
4051;SDS011;2040;50.924;11.604;2022-10-28T10:15:27;14.70;;;6.30;;
4051;SDS011;2040;50.924;11.604;2022-10-28T10:17:56;5.73;;;3.93;;
4051;SDS011;2040;50.924;11.604;2022-10-28T10:20:24;5.77;;;3.43;;
4051;SDS011;2040;50.924;11.604;2022-10-28T10:22:50;6.90;;;3.33;;
4051;SDS011;2040;50.924;11.604;2022-10-28T10:27:48;10.63;;;4.43;;
4051;SDS011;2040;50.924;11.604;2022-10-28T10:30:24;11.20;;;3.70;;
4051;SDS011;2040;50.924;11.604;2022-10-28T10:32:58;11.43;;;3.93;;
4051;SDS011;2040;50.924;11.604;2022-10-28T10:35:26;8.10;;;2.37;;
4051;SDS011;2040;50.924;11.604;2022-10-28T10:37:55;15.13;;;4.60;;
4051;SDS011;2040;50.924;11.604;2022-10-28T10:40:24;7.60;;;3.17;;
4051;SDS011;2040;50.924;11.604;2022-10-28T10:42:55;5.77;;;2.47;;
4051;SDS011;2040;50.924;11.604;2022-10-28T10:45:38;6.47;;;2.10;;
4051;SDS011;2040;50.924;11.604;2022-10-28T10:48:11;19.20;;;7.10;;
4051;SDS011;2040;50.924;11.604;2022-10-28T10:50:38;13.27;;;7.83;;
4051;SDS011;2040;50.924;11.604;2022-10-28T10:53:06;24.97;;;5.10;;
4051;SDS011;2040;50.924;11.604;2022-10-28T10:55:46;14.20;;;3.50;;
4051;SDS011;2040;50.924;11.604;2022-10-28T10:58:15;9.37;;;3.80;;
4051;SDS011;2040;50.924;11.604;2022-10-28T11:00:46;7.90;;;3.03;;
4051;SDS011;2040;50.924;11.604;2022-10-28T11:03:24;3.17;;;1.50;;
4051;SDS011;2040;50.924;11.604;2022-10-28T11:06:04;3.43;;;2.23;;
4051;SDS011;2040;50.924;11.604;2022-10-28T11:08:33;5.30;;;2.00;;
4051;SDS011;2040;50.924;11.604;2022-10-28T11:13:43;6.57;;;2.47;;
4051;SDS011;2040;50.924;11.604;2022-10-28T11:16:17;10.70;;;2.63;;
4051;SDS011;2040;50.924;11.604;2022-10-28T11:18:43;13.03;;;2.17;;
4051;SDS011;2040;50.924;11.604;2022-10-28T11:21:14;4.27;;;2.20;;
4051;SDS011;2040;50.924;11.604;2022-10-28T11:29:39;6.27;;;2.47;;
4051;SDS011;2040;50.924;11.604;2022-10-28T11:40:06;9.20;;;2.13;;
4051;SDS011;2040;50.924;11.604;2022-10-28T11:45:44;11.07;;;2.77;;
4051;SDS011;2040;50.924;11.604;2022-10-28T11:53:36;7.70;;;2.33;;
4051;SDS011;2040;50.924;11.604;2022-10-28T11:56:17;5.00;;;1.97;;
4051;SDS011;2040;50.924;11.604;2022-10-28T12:10:01;10.53;;;2.60;;
4051;SDS011;2040;50.924;11.604;2022-10-28T12:20:41;11.53;;;2.40;;
4051;SDS011;2040;50.924;11.604;2022-10-28T12:23:11;19.13;;;2.93;;
4051;SDS011;2040;50.924;11.604;2022-10-28T12:25:41;9.13;;;2.40;;
4051;SDS011;2040;50.924;11.604;2022-10-28T12:28:15;7.17;;;1.87;;
4051;SDS011;2040;50.924;11.604;2022-10-28T12:30:45;5.87;;;2.20;;
4051;SDS011;2040;50.924;11.604;2022-10-28T12:38:40;6.27;;;2.27;;
4051;SDS011;2040;50.924;11.604;2022-10-28T12:43:37;4.67;;;2.10;;
4051;SDS011;2040;50.924;11.604;2022-10-28T12:46:08;9.27;;;2.20;;
4051;SDS011;2040;50.924;11.604;2022-10-28T12:48:50;7.67;;;2.37;;
4051;SDS011;2040;50.924;11.604;2022-10-28T12:51:22;4.70;;;1.90;;
4051;SDS011;2040;50.924;11.604;2022-10-28T12:54:05;12.90;;;3.10;;
4051;SDS011;2040;50.924;11.604;2022-10-28T12:56:53;9.60;;;3.37;;
4051;SDS011;2040;50.924;11.604;2022-10-28T12:59:32;8.40;;;2.57;;
4051;SDS011;2040;50.924;11.604;2022-10-28T13:02:01;8.57;;;3.47;;
4051;SDS011;2040;50.924;11.604;2022-10-28T13:04:31;6.90;;;2.20;;
4051;SDS011;2040;50.924;11.604;2022-10-28T13:15:04;5.43;;;2.33;;
4051;SDS011;2040;50.924;11.604;2022-10-28T13:18:21;7.70;;;2.97;;
4051;SDS011;2040;50.924;11.604;2022-10-28T13:21:04;8.73;;;3.27;;
4051;SDS011;2040;50.924;11.604;2022-10-28T13:26:33;6.80;;;2.77;;
4051;SDS011;2040;50.924;11.604;2022-10-28T13:29:01;13.60;;;3.50;;
4051;SDS011;2040;50.924;11.604;2022-10-28T13:31:40;12.63;;;2.37;;
4051;SDS011;2040;50.924;11.604;2022-10-28T13:34:08;8.47;;;3.20;;
4051;SDS011;2040;50.924;11.604;2022-10-28T13:36:38;8.50;;;2.40;;
4051;SDS011;2040;50.924;11.604;2022-10-28T13:39:52;15.70;;;2.30;;
4051;SDS011;2040;50.924;11.604;2022-10-28T13:47:32;5.63;;;2.20;;
4051;SDS011;2040;50.924;11.604;2022-10-28T13:52:31;7.33;;;1.93;;
4051;SDS011;2040;50.924;11.604;2022-10-28T13:57:45;6.03;;;2.17;;
4051;SDS011;2040;50.924;11.604;2022-10-28T14:02:45;7.63;;;1.93;;
4051;SDS011;2040;50.924;11.604;2022-10-28T14:05:16;5.73;;;2.50;;
4051;SDS011;2040;50.924;11.604;2022-10-28T14:07:52;12.20;;;2.50;;
4051;SDS011;2040;50.924;11.604;2022-10-28T14:10:39;8.00;;;2.00;;
4051;SDS011;2040;50.924;11.604;2022-10-28T14:13:06;8.57;;;2.77;;
4051;SDS011;2040;50.924;11.604;2022-10-28T14:15:44;12.80;;;3.90;;
4051;SDS011;2040;50.924;11.604;2022-10-28T14:41:55;7.77;;;2.33;;
4051;SDS011;2040;50.924;11.604;2022-10-28T14:52:44;13.30;;;4.00;;
4051;SDS011;2040;50.924;11.604;2022-10-28T14:55:23;5.40;;;2.20;;
4051;SDS011;2040;50.924;11.604;2022-10-28T14:57:53;17.77;;;3.30;;
4051;SDS011;2040;50.924;11.604;2022-10-28T15:00:42;9.00;;;2.10;;
4051;SDS011;2040;50.924;11.604;2022-10-28T15:03:32;8.47;;;3.03;;
4051;SDS011;2040;50.924;11.604;2022-10-28T15:06:02;11.20;;;2.20;;
4051;SDS011;2040;50.924;11.604;2022-10-28T15:09:02;11.97;;;2.23;;
4051;SDS011;2040;50.924;11.604;2022-10-28T15:12:05;14.03;;;3.30;;
4051;SDS011;2040;50.924;11.604;2022-10-28T15:17:16;5.70;;;2.10;;
4051;SDS011;2040;50.924;11.604;2022-10-28T15:19:45;17.80;;;3.27;;
4051;SDS011;2040;50.924;11.604;2022-10-28T15:22:31;8.17;;;2.63;;
4051;SDS011;2040;50.924;11.604;2022-10-28T15:25:01;7.93;;;2.30;;
4051;SDS011;2040;50.924;11.604;2022-10-28T15:27:35;14.20;;;5.27;;
4051;SDS011;2040;50.924;11.604;2022-10-28T15:30:03;15.83;;;4.37;;
4051;SDS011;2040;50.924;11.604;2022-10-28T15:32:50;10.00;;;3.60;;
4051;SDS011;2040;50.924;11.604;2022-10-28T15:38:01;12.40;;;3.63;;
4051;SDS011;2040;50.924;11.604;2022-10-28T15:40:35;8.30;;;2.77;;
4051;SDS011;2040;50.924;11.604;2022-10-28T15:45:33;6.87;;;2.70;;
4051;SDS011;2040;50.924;11.604;2022-10-28T15:48:00;8.47;;;2.83;;
4051;SDS011;2040;50.924;11.604;2022-10-28T15:50:34;9.90;;;2.73;;
4051;SDS011;2040;50.924;11.604;2022-10-28T15:55:36;14.30;;;3.67;;
4051;SDS011;2040;50.924;11.604;2022-10-28T16:00:34;12.80;;;3.13;;
4051;SDS011;2040;50.924;11.604;2022-10-28T16:03:48;6.27;;;2.30;;
4051;SDS011;2040;50.924;11.604;2022-10-28T16:06:24;10.93;;;3.07;;
4051;SDS011;2040;50.924;11.604;2022-10-28T16:11:33;13.13;;;4.83;;
4051;SDS011;2040;50.924;11.604;2022-10-28T16:14:52;13.93;;;3.33;;
4051;SDS011;2040;50.924;11.604;2022-10-28T16:17:39;10.80;;;3.40;;
4051;SDS011;2040;50.924;11.604;2022-10-28T16:19:57;7.37;;;2.20;;
4051;SDS011;2040;50.924;11.604;2022-10-28T16:22:26;9.33;;;2.57;;
4051;SDS011;2040;50.924;11.604;2022-10-28T16:24:53;6.67;;;2.60;;
4051;SDS011;2040;50.924;11.604;2022-10-28T16:27:24;13.73;;;3.30;;
4051;SDS011;2040;50.924;11.604;2022-10-28T16:29:51;10.50;;;3.80;;
4051;SDS011;2040;50.924;11.604;2022-10-28T16:32:25;10.00;;;3.63;;
4051;SDS011;2040;50.924;11.604;2022-10-28T16:34:52;9.40;;;2.80;;
4051;SDS011;2040;50.924;11.604;2022-10-28T16:39:50;21.13;;;4.63;;
4051;SDS011;2040;50.924;11.604;2022-10-28T16:42:16;5.43;;;2.37;;
4051;SDS011;2040;50.924;11.604;2022-10-28T16:44:43;5.97;;;2.60;;
4051;SDS011;2040;50.924;11.604;2022-10-28T16:47:12;3.87;;;2.30;;
4051;SDS011;2040;50.924;11.604;2022-10-28T16:49:40;5.27;;;2.63;;
4051;SDS011;2040;50.924;11.604;2022-10-28T16:52:07;7.93;;;2.93;;
4051;SDS011;2040;50.924;11.604;2022-10-28T16:54:39;10.63;;;2.50;;
4051;SDS011;2040;50.924;11.604;2022-10-28T16:57:06;6.13;;;2.83;;
4051;SDS011;2040;50.924;11.604;2022-10-28T16:59:32;9.30;;;2.87;;
4051;SDS011;2040;50.924;11.604;2022-10-28T17:01:57;8.47;;;3.40;;
4051;SDS011;2040;50.924;11.604;2022-10-28T17:04:23;8.97;;;3.00;;
4051;SDS011;2040;50.924;11.604;2022-10-28T17:06:49;5.37;;;2.20;;
4051;SDS011;2040;50.924;11.604;2022-10-28T17:09:15;7.87;;;2.70;;
4051;SDS011;2040;50.924;11.604;2022-10-28T17:11:41;6.87;;;3.00;;
4051;SDS011;2040;50.924;11.604;2022-10-28T17:14:06;5.70;;;2.87;;
4051;SDS011;2040;50.924;11.604;2022-10-28T17:16:32;6.57;;;2.87;;
4051;SDS011;2040;50.924;11.604;2022-10-28T17:18:58;6.73;;;2.40;;
4051;SDS011;2040;50.924;11.604;2022-10-28T17:21:23;5.40;;;2.60;;
4051;SDS011;2040;50.924;11.604;2022-10-28T17:23:49;6.30;;;2.43;;
4051;SDS011;2040;50.924;11.604;2022-10-28T17:26:15;14.40;;;2.40;;
4051;SDS011;2040;50.924;11.604;2022-10-28T17:28:41;5.60;;;2.50;;
4051;SDS011;2040;50.924;11.604;2022-10-28T17:31:07;8.50;;;2.67;;
4051;SDS011;2040;50.924;11.604;2022-10-28T17:33:33;8.77;;;3.10;;
4051;SDS011;2040;50.924;11.604;2022-10-28T17:35:59;7.77;;;2.60;;
4051;SDS011;2040;50.924;11.604;2022-10-28T17:38:29;5.40;;;2.70;;
4051;SDS011;2040;50.924;11.604;2022-10-28T17:40:56;6.70;;;1.83;;
4051;SDS011;2040;50.924;11.604;2022-10-28T17:43:22;11.50;;;3.07;;
4051;SDS011;2040;50.924;11.604;2022-10-28T17:45:48;13.63;;;3.40;;
4051;SDS011;2040;50.924;11.604;2022-10-28T17:48:14;11.53;;;2.87;;
4051;SDS011;2040;50.924;11.604;2022-10-28T17:50:39;5.13;;;3.30;;
4051;SDS011;2040;50.924;11.604;2022-10-28T17:53:05;8.03;;;3.50;;
4051;SDS011;2040;50.924;11.604;2022-10-28T17:55:31;10.90;;;3.50;;
4051;SDS011;2040;50.924;11.604;2022-10-28T17:57:56;5.43;;;2.50;;
4051;SDS011;2040;50.924;11.604;2022-10-28T18:00:22;7.30;;;2.70;;
4051;SDS011;2040;50.924;11.604;2022-10-28T18:02:49;15.60;;;3.10;;
4051;SDS011;2040;50.924;11.604;2022-10-28T18:05:19;5.90;;;2.90;;
4051;SDS011;2040;50.924;11.604;2022-10-28T18:07:45;13.43;;;3.53;;
4051;SDS011;2040;50.924;11.604;2022-10-28T18:10:10;6.00;;;2.77;;
4051;SDS011;2040;50.924;11.604;2022-10-28T18:12:36;11.53;;;3.33;;
4051;SDS011;2040;50.924;11.604;2022-10-28T18:15:02;8.93;;;3.70;;
4051;SDS011;2040;50.924;11.604;2022-10-28T18:17:29;6.60;;;3.93;;